Saint Paul, Virginia
Current Conditions -  °F | °C
As of 4:35 AM on Sunday 26 Oct 2014 (Local Time) from KLNP Reporting Station
Scattered Clouds Scattered Clouds  
Wind Chill: 59°   Ceiling: Unl
Heat Index: 59°   Visibility: 10mi
Dew Point: 50°   Wind: 13mph
Humidity: 72%   Direction: 300°WNW
Pressure: 30"   Gusts: 23mph
Location:  36.91°N, 82.31°W
Report Text: KLNP 260835Z AUTO 30011G20KT 10SM SCT018 SCT024 15/10 A3000 RMK AO2
Loading
Personal Weather Stations






























Interactive Weather Map
Tropical Storm Tracking
New forecast layout! Learn more

10-Day Weather Forecast

Advertisements
Track Severe Weather on mobile